createdAt,value
2018-05-04T00:00:30.092Z,60.3
2018-05-04T00:01:15.676Z,60.58
2018-05-04T00:06:17.875Z,60.49
2018-05-04T00:07:06.463Z,60.39
2018-05-04T00:07:55.594Z,60.3
2018-05-04T00:08:43.946Z,60.58
2018-05-04T00:09:32.941Z,60.87
2018-05-04T00:10:21.206Z,60.49
2018-05-04T00:11:09.694Z,61.35
2018-05-04T00:11:57.839Z,61.63
2018-05-04T00:12:46.287Z,61.92
2018-05-04T00:13:34.400Z,61.73
2018-05-04T00:14:21.800Z,62.3
2018-05-04T00:15:06.449Z,62.3
2018-05-04T00:15:46.848Z,62.4
2018-05-04T00:16:27.228Z,62.02
2018-05-04T00:17:07.641Z,61.73
2018-05-04T00:17:48.094Z,61.16
2018-05-04T00:18:28.518Z,61.54
2018-05-04T00:19:08.898Z,61.35
2018-05-04T00:19:49.324Z,61.16
2018-05-04T00:20:29.756Z,60.97
2018-05-04T00:21:10.137Z,61.16
2018-05-04T00:21:50.492Z,61.35
2018-05-04T00:22:30.915Z,61.25
2018-05-04T00:23:11.299Z,60.87
2018-05-04T00:23:51.729Z,61.1
2018-05-04T00:24:32.116Z,61.1
2018-05-04T00:25:12.473Z,60.9
2018-05-04T00:25:52.894Z,60.52
2018-05-04T00:26:33.336Z,60.61
2018-05-04T00:27:13.664Z,60.52
2018-05-04T00:27:54.165Z,60.42
2018-05-04T00:28:34.492Z,60.61
2018-05-04T00:29:14.911Z,60.24
2018-05-04T00:29:55.319Z,60.52
2018-05-04T00:30:35.738Z,60.9
2018-05-04T00:31:16.102Z,60.3
2018-05-04T00:31:56.499Z,60.58
2018-05-04T00:32:36.935Z,60.78
2018-05-04T00:33:17.328Z,60.49
2018-05-04T00:33:57.743Z,60.78
2018-05-04T00:34:38.184Z,61.07
2018-05-04T00:35:18.541Z,61.16
2018-05-04T00:35:58.994Z,61.25
2018-05-04T00:36:39.372Z,61.16
2018-05-04T00:37:19.710Z,61.25
2018-05-04T00:38:00.103Z,61.44
2018-05-04T00:38:40.515Z,61.54
2018-05-04T00:39:20.920Z,61.92
2018-05-04T00:41:12.075Z,61.73
2018-05-04T00:42:01.135Z,61.63
2018-05-04T00:42:49.604Z,61.92
2018-05-04T00:43:37.860Z,62.11
2018-05-04T00:44:26.334Z,62.49
2018-05-04T00:45:14.880Z,61.92
2018-05-04T00:46:03.353Z,61.63
2018-05-04T00:46:51.861Z,61.35
2018-05-04T00:48:49.340Z,62.21
2018-05-04T00:49:37.995Z,62.11
2018-05-04T00:50:26.216Z,61.83
2018-05-04T00:51:14.688Z,62.3
2018-05-04T00:52:03.230Z,62.4
2018-05-04T00:52:51.809Z,62.65
2018-05-04T00:53:40.330Z,62.3
2018-05-04T00:54:29.105Z,62.65
2018-05-04T00:55:17.614Z,62.94
2018-05-04T00:56:06.029Z,63.6
2018-05-04T00:56:55.048Z,63.99
2018-05-04T00:57:43.626Z,64.28
2018-05-04T00:58:31.755Z,64.56
2018-05-04T00:59:20.260Z,64.18
2018-05-04T01:00:09.066Z,64.47
2018-05-04T01:00:58.129Z,64.85
2018-05-04T01:01:46.734Z,64.75
2018-05-04T01:02:35.390Z,65.33
2018-05-04T01:03:23.969Z,65.1
2018-05-04T01:04:12.558Z,65.48
2018-05-04T01:05:01.582Z,65.77
2018-05-04T01:05:50.565Z,65.86
2018-05-04T01:06:39.195Z,65.77
2018-05-04T01:07:27.582Z,66.05
2018-05-04T01:08:16.064Z,66.15
2018-05-04T01:09:04.630Z,66.82
2018-05-04T01:09:53.530Z,67.29
2018-05-04T01:10:41.955Z,67.48
2018-05-04T01:11:30.728Z,67.58
2018-05-04T01:12:18.909Z,67.68
2018-05-04T01:13:07.717Z,67.39
2018-05-04T01:13:56.283Z,67.29
2018-05-04T01:14:44.675Z,67
2018-05-04T01:15:33.363Z,66.82
2018-05-04T01:16:21.383Z,66.72
2018-05-04T01:17:09.849Z,66.53
2018-05-04T01:17:58.574Z,66.72
2018-05-04T01:18:46.906Z,66.91
2018-05-04T01:19:35.601Z,66.53
2018-05-04T01:20:24.129Z,66.24
2018-05-04T01:21:12.600Z,65.99
2018-05-04T01:22:01.315Z,66.24
2018-05-04T01:22:49.519Z,66.05
2018-05-04T01:23:38.129Z,65.96
2018-05-04T01:24:26.751Z,66.15
2018-05-04T01:25:15.412Z,66.72
2018-05-04T01:26:04.078Z,66.63
2018-05-04T01:26:52.890Z,67
2018-05-04T01:27:39.687Z,67.68
2018-05-04T01:28:28.648Z,67.29
2018-05-04T01:29:17.112Z,67.39
2018-05-04T01:30:06.118Z,67.48
2018-05-04T01:30:54.286Z,67.48
2018-05-04T01:31:42.704Z,67.96
2018-05-04T01:32:31.685Z,67.39
2018-05-04T01:33:19.993Z,67.77
2018-05-04T01:34:08.277Z,67.1
2018-05-04T01:34:57.521Z,66.72
2018-05-04T01:35:45.759Z,66.63
2018-05-04T01:36:34.305Z,66.82
2018-05-04T01:37:22.895Z,66.82
2018-05-04T01:38:12.153Z,66.82
2018-05-04T01:39:00.361Z,66.82
2018-05-04T01:39:49.094Z,67.1
2018-05-04T01:40:37.726Z,67
2018-05-04T01:41:26.367Z,67.39
2018-05-04T01:42:14.903Z,67.93
2018-05-04T01:43:03.243Z,68.12
2018-05-04T01:43:51.856Z,67.83
2018-05-04T01:44:40.349Z,68.59
2018-05-04T01:45:28.857Z,68.69
2018-05-04T01:46:17.376Z,68.78
2018-05-04T01:47:06.605Z,68.88
2018-05-04T01:47:54.698Z,69.54
2018-05-04T01:48:43.189Z,69.54
2018-05-04T01:49:31.846Z,69.64
2018-05-04T01:50:20.381Z,70.02
2018-05-04T01:51:09.060Z,70.02
2018-05-04T01:51:57.697Z,70.21
2018-05-04T01:52:46.626Z,70.4
2018-05-04T01:53:34.551Z,70.21
2018-05-04T01:54:23.539Z,70.02
2018-05-04T01:55:12.097Z,70.5
2018-05-04T01:56:00.607Z,70.4
2018-05-04T01:56:49.589Z,70.4
2018-05-04T01:57:38.025Z,70.47
2018-05-04T01:58:26.669Z,70.94
2018-05-04T01:59:15.161Z,70.65
2018-05-04T02:00:03.203Z,70.75
2018-05-04T02:00:51.991Z,70.75
2018-05-04T02:01:40.357Z,70.75
2018-05-04T02:02:29.217Z,70.37
2018-05-04T02:03:18.130Z,70.94
2018-05-04T02:04:06.225Z,71.51
2018-05-04T02:04:54.817Z,71.32
2018-05-04T02:06:45.830Z,71.8
2018-05-04T02:07:33.848Z,72.27
2018-05-04T02:08:22.468Z,72.37
2018-05-04T02:09:11.114Z,72.46
2018-05-04T02:09:59.754Z,72.65
2018-05-04T02:10:48.142Z,71.89
2018-05-04T02:11:36.738Z,71.7
2018-05-04T02:12:25.412Z,71.32
2018-05-04T02:13:13.971Z,71.32
2018-05-04T02:14:02.238Z,71.32
2018-05-04T02:14:51.293Z,70.97
2018-05-04T02:15:39.650Z,70.84
2018-05-04T02:16:28.105Z,70.94
2018-05-04T02:17:16.665Z,71.13
2018-05-04T02:18:05.192Z,71.7
2018-05-04T02:18:53.703Z,70.94
2018-05-04T02:19:42.496Z,71.03
2018-05-04T02:20:31.420Z,71.61
2018-05-04T02:21:19.489Z,71.42
2018-05-04T02:22:08.045Z,71.32
2018-05-04T02:22:56.956Z,71.22
2018-05-04T02:23:44.881Z,71.32
2018-05-04T02:24:33.592Z,71.61
2018-05-04T02:25:22.131Z,71.42
2018-05-04T02:26:11.044Z,71.51
2018-05-04T02:26:59.439Z,71.51
2018-05-04T02:27:48.032Z,71.07
2018-05-04T02:28:36.462Z,71.03
2018-05-04T02:29:24.965Z,70.88
2018-05-04T02:30:13.514Z,70.5
2018-05-04T02:31:02.225Z,71.07
2018-05-04T02:31:50.665Z,70.69
2018-05-04T02:32:39.549Z,70.56
2018-05-04T02:33:27.684Z,70.94
2018-05-04T02:34:16.250Z,70.84
2018-05-04T02:35:04.988Z,70.84
2018-05-04T02:35:53.599Z,71.07
2018-05-04T02:36:42.118Z,70.59
2018-05-04T02:37:30.694Z,70.78
2018-05-04T02:38:19.070Z,70.78
2018-05-04T02:39:07.635Z,70.37
2018-05-04T02:39:56.207Z,70.31
2018-05-04T02:40:44.860Z,70.78
2018-05-04T02:41:33.198Z,70.5
2018-05-04T02:42:21.965Z,70.59
2018-05-04T02:43:10.348Z,70.97
2018-05-04T02:43:58.942Z,71.07
2018-05-04T02:44:47.467Z,71.07
2018-05-04T02:45:36.174Z,70.78
2018-05-04T02:46:24.616Z,70.4
2018-05-04T02:47:13.001Z,70.4
2018-05-04T02:48:02.019Z,70.12
2018-05-04T02:48:50.404Z,70.31
2018-05-04T02:49:38.793Z,70.4
2018-05-04T02:50:25.873Z,70.21
2018-05-04T02:51:14.576Z,70.31
2018-05-04T02:52:03.309Z,70.21
2018-05-04T02:52:51.814Z,69.93
2018-05-04T02:53:40.243Z,70.31
2018-05-04T02:54:28.609Z,70.31
2018-05-04T02:55:17.226Z,70.31
2018-05-04T02:56:02.060Z,69.64
2018-05-04T02:56:42.431Z,70.12
2018-05-04T02:57:22.843Z,69.54
2018-05-04T02:58:03.259Z,69.54
2018-05-04T02:58:43.699Z,69.54
2018-05-04T02:59:24.053Z,69.64
2018-05-04T03:00:04.455Z,69.54
2018-05-04T03:00:44.866Z,69.35
2018-05-04T03:01:25.266Z,69.54
2018-05-04T03:02:05.651Z,69.64
2018-05-04T03:02:46.063Z,69.74
2018-05-04T03:03:26.464Z,70.31
2018-05-04T03:04:06.887Z,69.99
2018-05-04T03:04:47.306Z,70.37
2018-05-04T03:05:27.731Z,70.94
2018-05-04T03:06:08.147Z,71.03
2018-05-04T03:06:48.529Z,71.03
2018-05-04T03:07:28.878Z,71.22
2018-05-04T03:08:09.323Z,71.42
2018-05-04T03:08:49.734Z,71.61
2018-05-04T03:09:30.169Z,71.42
2018-05-04T03:10:10.546Z,71.7
2018-05-04T03:10:50.975Z,71.73
2018-05-04T03:11:31.365Z,70.97
2018-05-04T03:12:11.830Z,70.97
2018-05-04T03:12:52.248Z,70.97
2018-05-04T03:13:32.646Z,70.59
2018-05-04T03:14:13.055Z,70.59
2018-05-04T03:14:53.442Z,70.56
2018-05-04T03:15:33.860Z,70.18
2018-05-04T03:16:14.240Z,70.47
2018-05-04T03:16:54.674Z,70.65
2018-05-04T03:17:35.111Z,70.94
2018-05-04T03:18:15.502Z,71.51
2018-05-04T03:18:55.942Z,71.42
2018-05-04T03:19:36.264Z,71.89
2018-05-04T03:20:16.672Z,72.17
2018-05-04T03:20:57.083Z,72.9
2018-05-04T03:21:37.451Z,72.94
2018-05-04T03:22:17.896Z,73.03
2018-05-04T03:22:58.371Z,73
2018-05-04T03:23:38.766Z,73.47
2018-05-04T03:24:19.185Z,73.7
2018-05-04T03:24:59.623Z,73.7
2018-05-04T03:25:40.091Z,73.8
2018-05-04T03:26:21.058Z,73.61
2018-05-04T03:27:01.798Z,73.32
2018-05-04T03:27:45.609Z,73.03
2018-05-04T03:28:27.152Z,72.85
2018-05-04T03:29:08.183Z,73.13
2018-05-04T03:29:49.396Z,73.13
2018-05-04T03:30:30.045Z,72.94
2018-05-04T03:31:10.993Z,72.42
2018-05-04T03:31:52.559Z,73.32
2018-05-04T03:32:33.480Z,72.9
2018-05-04T03:33:14.187Z,72.9
2018-05-04T03:33:55.717Z,73.1
2018-05-04T03:34:37.892Z,73.47
2018-05-04T03:35:19.913Z,73.66
2018-05-04T03:36:01.707Z,74.14
2018-05-04T03:36:42.512Z,74.04
2018-05-04T03:37:23.543Z,74.33
2018-05-04T03:38:05.748Z,74.62
2018-05-04T03:38:46.764Z,74.62
2018-05-04T03:39:27.409Z,74.99
2018-05-04T03:40:09.663Z,74.71
2018-05-04T03:40:50.427Z,74.9
2018-05-04T03:41:31.573Z,75.05
2018-05-04T03:42:12.434Z,75.15
2018-05-04T03:42:53.537Z,75.34
2018-05-04T03:43:35.662Z,75.62
2018-05-04T03:44:16.590Z,76.01
2018-05-04T03:44:58.457Z,75.81
2018-05-04T03:45:39.982Z,76.2
2018-05-04T03:46:20.992Z,76.39
2018-05-04T03:47:02.036Z,76.39
2018-05-04T03:47:42.397Z,76.48
2018-05-04T03:48:23.656Z,76.48
2018-05-04T03:49:04.381Z,77.05
2018-05-04T03:49:47.045Z,76.96
2018-05-04T03:50:26.855Z,76.96
2018-05-04T03:51:07.461Z,77.24
2018-05-04T03:51:47.986Z,77.34
2018-05-04T03:52:28.771Z,77.24
2018-05-04T03:53:09.214Z,77.43
2018-05-04T03:53:49.697Z,77.34
2018-05-04T03:54:30.187Z,76.86
2018-05-04T03:55:10.682Z,78.1
2018-05-04T03:55:51.914Z,78.19
2018-05-04T03:56:32.943Z,78.48
2018-05-04T03:57:13.519Z,78.19
2018-05-04T03:57:54.478Z,78
2018-05-04T03:58:35.173Z,78.48
2018-05-04T03:59:15.623Z,78.48
2018-05-04T03:59:56.068Z,78.44
2018-05-04T04:00:36.441Z,78.48
2018-05-04T04:01:17.189Z,78.44
2018-05-04T04:01:57.904Z,78.06
2018-05-04T04:02:38.478Z,77.97
2018-05-04T04:03:19.031Z,78.44
2018-05-04T04:41:11.550Z,72.78
2018-05-04T04:41:51.862Z,71.36
2018-05-04T04:42:32.207Z,71.07
2018-05-04T04:43:12.665Z,70.78
2018-05-04T04:43:53.104Z,70.31
2018-05-04T04:44:33.518Z,70.4
2018-05-04T04:45:13.859Z,70.31
2018-05-04T04:45:54.298Z,70.12
2018-05-04T04:46:34.637Z,69.93
2018-05-04T04:47:15.053Z,69.74
2018-05-04T04:47:55.414Z,69.48
2018-05-04T04:48:35.831Z,69.2
2018-05-04T04:49:16.236Z,68.91
2018-05-04T04:49:56.627Z,69.01
2018-05-04T04:52:09.638Z,66.94
2018-05-04T04:53:57.514Z,65.13
2018-05-04T04:54:37.860Z,64.94
2018-05-04T04:55:18.272Z,64.4
2018-05-04T04:55:58.657Z,64.5
2018-05-04T04:56:39.034Z,64.02
2018-05-04T05:02:30.489Z,60.46
2018-05-04T05:03:11.055Z,59.63
2018-05-04T05:03:51.472Z,58.58
2018-05-04T05:07:07.707Z,55
2018-05-04T05:07:48.134Z,54.61
2018-05-04T05:08:28.499Z,54.43
2018-05-04T05:09:09.015Z,54.07
2018-05-04T05:09:49.365Z,53.02
2018-05-04T05:10:29.766Z,53.11
2018-05-04T05:11:10.343Z,52.54
2018-05-04T05:11:50.738Z,51.61
2018-05-04T05:12:31.149Z,51.13
2018-05-04T05:13:11.556Z,50.56
2018-05-04T05:13:51.933Z,50.29
2018-05-04T05:14:32.288Z,49.91
2018-05-04T05:15:12.740Z,49.91
2018-05-04T05:15:53.153Z,50
2018-05-04T05:23:03.509Z,45.01
2018-05-04T05:23:43.912Z,45.3
2018-05-04T05:24:24.347Z,44.56
2018-05-04T05:25:04.775Z,44.17
2018-05-04T05:26:15.115Z,43.12
2018-05-04T05:26:55.465Z,43.04
2018-05-04T05:27:35.916Z,42.76
2018-05-04T05:28:16.315Z,41.89
2018-05-04T05:28:56.725Z,41.79
2018-05-04T05:29:37.231Z,41.82
2018-05-04T05:30:17.529Z,41.43
2018-05-04T05:30:58.006Z,41.53
2018-05-04T05:31:38.409Z,41.24
2018-05-04T05:32:18.833Z,40.95
2018-05-04T05:32:59.310Z,40.49
2018-05-04T05:33:39.721Z,40.56
2018-05-04T05:34:20.180Z,41.16
2018-05-04T05:35:00.649Z,40.49
2018-05-04T05:35:41.027Z,40.2
2018-05-04T05:37:54.035Z,40.12
2018-05-04T05:38:34.353Z,39.54
2018-05-04T05:46:10.859Z,36.71
2018-05-04T05:46:51.112Z,36.91
2018-05-04T05:47:31.693Z,36.81
2018-05-04T05:48:12.322Z,36.71
2018-05-04T05:48:52.924Z,36.81
2018-05-04T05:49:33.385Z,36.04
2018-05-04T05:50:13.743Z,35.58
2018-05-04T05:50:54.913Z,35.56
2018-05-04T05:51:35.388Z,35.94
2018-05-04T05:52:15.888Z,36.35
2018-05-04T05:52:56.396Z,35.86
2018-05-04T05:53:36.778Z,35.77
2018-05-04T05:54:18.156Z,35.48
2018-05-04T05:54:58.568Z,35.28
2018-05-04T05:55:38.370Z,35.11
2018-05-04T05:56:18.746Z,34.63
2018-05-04T05:56:59.208Z,34.53
2018-05-04T05:57:39.585Z,34.16
2018-05-04T05:58:20.104Z,34.05
2018-05-04T05:59:00.544Z,34.06
2018-05-04T05:59:41.019Z,34.06
2018-05-04T06:00:21.732Z,33.89
2018-05-04T06:01:02.280Z,32.92
2018-05-04T06:01:42.724Z,32.54
2018-05-04T06:02:23.174Z,32.94
2018-05-04T06:03:03.724Z,32.26
2018-05-04T06:03:44.145Z,32.17
2018-05-04T06:04:24.544Z,31.59
2018-05-04T06:05:05.198Z,31.99
2018-05-04T06:05:45.657Z,31.41
2018-05-04T06:06:26.285Z,31.41
2018-05-04T06:07:07.510Z,30.94
2018-05-04T06:07:47.345Z,30.94
2018-05-04T06:08:27.753Z,30.85
2018-05-04T06:09:08.306Z,30.65
2018-05-04T06:09:48.994Z,30.46
2018-05-04T06:10:29.407Z,30.47
2018-05-04T06:11:09.835Z,30.28
2018-05-04T06:11:50.226Z,30.65
2018-05-04T06:12:30.639Z,30.46
2018-05-04T06:13:11.034Z,30.28
2018-05-04T06:13:51.445Z,30.18
2018-05-04T06:14:31.874Z,30.28
2018-05-04T06:15:12.343Z,30.18
2018-05-04T06:15:52.723Z,30.18
2018-05-04T06:16:33.110Z,30.18
2018-05-04T06:17:13.698Z,29.7
2018-05-04T06:17:55.042Z,29.41
2018-05-04T06:18:35.552Z,29.23
2018-05-04T06:19:15.304Z,29.13
2018-05-04T06:19:56.553Z,28.85
2018-05-04T06:20:36.231Z,28.86
2018-05-04T06:21:16.837Z,28.47
2018-05-04T06:21:57.344Z,28.28
2018-05-04T06:22:37.873Z,28.08
2018-05-04T06:23:18.432Z,28.29
2018-05-04T06:23:58.902Z,27.91
2018-05-04T06:24:39.611Z,28.09
2018-05-04T06:25:21.046Z,28.29
2018-05-04T06:26:00.613Z,28.09
2018-05-04T06:26:41.085Z,28.19
2018-05-04T06:27:21.536Z,27.98
2018-05-04T06:28:01.972Z,28.08
2018-05-04T06:28:42.484Z,28.38
2018-05-04T06:29:23.096Z,28.38
2018-05-04T06:30:03.517Z,28.45
2018-05-04T06:30:43.953Z,28.94
2018-05-04T06:40:40.842Z,28.94
2018-05-04T06:41:21.264Z,28.94
2018-05-04T06:42:01.741Z,29.03
2018-05-04T06:42:42.225Z,28.73
2018-05-04T06:43:22.725Z,28.92
2018-05-04T06:48:35.636Z,29.41
2018-05-04T07:01:59.060Z,29.5
2018-05-04T07:02:39.810Z,29.6
2018-05-04T07:03:20.255Z,29.02
2018-05-04T07:04:00.727Z,29.32
2018-05-04T07:04:42.272Z,28.92
2018-05-04T07:05:24.054Z,29.2
2018-05-04T07:06:05.515Z,29.3
2018-05-04T07:06:46.078Z,29.78
2018-05-04T07:07:26.816Z,29.78
2018-05-04T07:08:07.272Z,29.97
2018-05-04T07:22:49.222Z,28.14
2018-05-04T07:24:25.371Z,28.81
2018-05-04T07:33:58.087Z,26.9
2018-05-04T07:34:53.105Z,26.62
2018-05-04T07:55:59.229Z,25.26
2018-05-04T07:56:43.852Z,25.25
2018-05-04T08:02:42.904Z,26.92
2018-05-04T08:14:57.710Z,25.18
2018-05-04T08:46:39.178Z,23.59
2018-05-04T09:09:27.242Z,26.35
2018-05-04T09:50:26.343Z,18.32
2018-05-04T09:51:09.184Z,18.6
2018-05-04T10:45:02.477Z,17.98
2018-05-04T10:53:58.848Z,15.48
2018-05-04T10:56:05.140Z,17.68
2018-05-04T10:56:45.797Z,18.16
2018-05-04T10:57:26.719Z,18.07
2018-05-04T10:58:07.917Z,18.16
2018-05-04T10:58:48.623Z,18.55
2018-05-04T10:59:31.157Z,18.56
2018-05-04T11:00:11.845Z,17.49
2018-05-04T11:00:53.493Z,17.49
2018-05-04T11:01:33.909Z,17
2018-05-04T11:02:14.320Z,16.88
2018-05-04T11:02:54.796Z,17.93
2018-05-04T11:03:35.192Z,19.67
2018-05-04T11:04:15.665Z,20.06
2018-05-04T11:04:56.247Z,19.96
2018-05-04T11:05:37.770Z,19.78
2018-05-04T11:06:18.407Z,19.68
2018-05-04T11:06:58.894Z,18.73
2018-05-04T11:07:39.299Z,18.24
2018-05-04T11:08:21.087Z,16.98
2018-05-04T11:09:02.029Z,18.24
2018-05-04T11:09:41.953Z,17.18
2018-05-04T11:10:22.792Z,16.69
2018-05-04T11:11:03.323Z,16.11
2018-05-04T11:11:45.273Z,16.31
2018-05-04T11:12:25.751Z,16.31
2018-05-04T11:13:10.330Z,16.9
2018-05-04T11:13:52.183Z,16.61
2018-05-04T11:14:32.705Z,16.14
2018-05-04T11:15:14.003Z,16.34
2018-05-04T11:15:54.788Z,15.67
2018-05-04T11:16:35.293Z,14.79
2018-05-04T11:17:15.712Z,15.19
2018-05-04T11:17:56.309Z,15.87
2018-05-04T11:18:36.637Z,15.58
2018-05-04T11:19:17.151Z,15.47
2018-05-04T11:19:58.674Z,16.14
2018-05-04T11:20:39.257Z,16.04
2018-05-04T11:21:20.869Z,16.53
2018-05-04T11:22:01.606Z,17.4
2018-05-04T11:22:42.285Z,17.01
2018-05-04T11:23:22.976Z,16.91
2018-05-04T11:24:04.563Z,17.02
2018-05-04T11:24:45.160Z,17.12
2018-05-04T11:25:25.771Z,16.83
2018-05-04T11:27:32.507Z,16.74
2018-05-04T11:28:15.230Z,16.06
2018-05-04T11:28:57.184Z,16.07
2018-05-04T11:29:39.819Z,15.5
2018-05-04T11:30:19.640Z,15.98
2018-05-04T11:31:00.381Z,15.78
2018-05-04T11:31:41.338Z,15.98
2018-05-04T11:32:21.706Z,15.99
2018-05-04T11:33:02.344Z,15.5
2018-05-04T11:33:42.897Z,15.5
2018-05-04T11:34:23.497Z,15.5
2018-05-04T11:35:03.825Z,15.11
2018-05-04T11:35:44.651Z,14.82
2018-05-04T11:36:25.436Z,14.72
2018-05-04T11:37:08.046Z,14.83
2018-05-04T11:37:49.065Z,14.83
2018-05-04T11:38:29.134Z,14.64
2018-05-04T11:39:10.336Z,14.55
2018-05-04T11:39:52.971Z,14.36
2018-05-04T11:55:07.996Z,15.31
2018-05-04T11:55:48.359Z,15.01
2018-05-04T11:56:28.953Z,15.01
2018-05-04T11:57:09.427Z,14.71
2018-05-04T11:57:49.897Z,15.86
2018-05-04T11:58:30.423Z,16.93
2018-05-04T11:59:10.872Z,17.21
2018-05-04T11:59:51.220Z,17.9
2018-05-04T12:00:34.394Z,17.21
2018-05-04T12:01:14.902Z,17.31
2018-05-04T12:01:55.508Z,17.9
2018-05-04T12:02:36.170Z,17.5
2018-05-04T12:03:26.171Z,17.42
2018-05-04T12:04:08.053Z,17.13
2018-05-04T12:04:52.061Z,16.94
2018-05-04T12:05:32.468Z,16.95
2018-05-04T12:06:12.858Z,16.56
2018-05-04T12:06:53.302Z,16.47
2018-05-04T12:07:34.183Z,16.66
2018-05-04T12:08:16.607Z,16.17
2018-05-04T12:08:57.358Z,16.17
2018-05-04T12:09:39.030Z,16.08
2018-05-04T12:10:19.457Z,16.17
2018-05-04T12:11:00.051Z,15.98
2018-05-04T12:11:43.629Z,16.37
2018-05-04T12:12:24.944Z,16.38
2018-05-04T12:13:19.003Z,16.09
2018-05-04T12:59:55.856Z,14.64
2018-05-04T13:00:37.253Z,14.73
2018-05-04T13:01:17.646Z,14.05
2018-05-04T13:01:58.145Z,14.34
2018-05-04T13:02:38.598Z,14.25
2018-05-04T13:03:18.987Z,14.64
2018-05-04T13:03:59.544Z,14.06
2018-05-04T13:04:39.902Z,14.06
2018-05-04T13:05:20.321Z,14.26
2018-05-04T13:06:00.788Z,14.26
2018-05-04T13:06:41.171Z,13.96
2018-05-04T13:07:21.583Z,14.26
2018-05-04T13:08:02.109Z,14.06
2018-05-04T13:08:43.078Z,14.26
2018-05-04T13:09:23.459Z,14.16
2018-05-04T13:10:05.537Z,14.36
2018-05-04T13:10:45.975Z,14.26
2018-05-04T13:11:26.382Z,14.55
2018-05-04T13:12:07.185Z,14.55
2018-05-04T13:12:48.232Z,14.25
2018-05-04T13:13:29.604Z,14.26
2018-05-04T13:14:09.904Z,14.45
2018-05-04T13:14:50.319Z,13.87
2018-05-04T13:15:30.791Z,14.06
2018-05-04T13:16:11.441Z,14.36
2018-05-04T13:16:52.265Z,14.36
2018-05-04T13:17:32.761Z,14.16
2018-05-04T13:18:13.171Z,14.06
2018-05-04T13:18:53.619Z,14.36
2018-05-04T13:19:34.095Z,14.36
2018-05-04T13:20:14.563Z,14.34
2018-05-04T13:20:55.523Z,14.83
2018-05-04T13:21:35.903Z,14.34
2018-05-04T13:22:16.374Z,14.73
2018-05-04T13:22:56.923Z,14.92
2018-05-04T13:23:37.379Z,14.92
2018-05-04T13:24:17.786Z,14.83
2018-05-04T13:24:58.907Z,14.83
2018-05-04T13:25:39.533Z,15.22
2018-05-04T13:26:20.043Z,15.12
2018-05-04T13:27:00.591Z,14.92
2018-05-04T13:27:42.124Z,15.31
2018-05-04T13:28:23.016Z,14.92
2018-05-04T13:29:03.572Z,15.02
2018-05-04T13:29:43.984Z,15.02
2018-05-04T13:30:26.361Z,15.12
2018-05-04T13:31:06.197Z,14.92
2018-05-04T13:31:46.689Z,15.7
2018-05-04T13:32:27.246Z,15.7
2018-05-04T13:33:07.701Z,15.41
2018-05-04T13:33:48.147Z,15.5
2018-05-04T13:34:28.605Z,15.31
2018-05-04T13:35:09.043Z,15.41
2018-05-04T13:35:49.426Z,15.99
2018-05-04T13:36:30.169Z,16.36
2018-05-04T13:37:10.949Z,16.56
2018-05-04T13:37:51.573Z,16.56
2018-05-04T13:38:31.968Z,16.17
2018-05-04T13:39:12.586Z,16.56
2018-05-04T13:39:53.281Z,16.07
2018-05-04T13:40:33.517Z,16.37
2018-05-04T13:41:13.965Z,15.88
2018-05-04T13:41:54.544Z,15.69
2018-05-04T13:42:34.738Z,15.5
2018-05-04T13:43:15.388Z,15.78
2018-05-04T13:43:55.844Z,15.98
2018-05-04T13:44:36.530Z,15.59
2018-05-04T13:45:16.817Z,16.08
2018-05-04T13:45:57.820Z,16.08
2018-05-04T13:46:38.649Z,16.08
2018-05-04T13:47:19.029Z,16.17
2018-05-04T13:47:59.910Z,16.27
2018-05-04T13:48:40.961Z,16.66
2018-05-04T13:49:20.885Z,16.08
2018-05-04T13:50:01.270Z,16.66
2018-05-04T13:50:42.020Z,16.27
2018-05-04T13:51:22.519Z,16.17
2018-05-04T13:52:03.243Z,16.17
2018-05-04T13:52:43.735Z,16.37
2018-05-04T13:53:24.386Z,16.17
2018-05-04T13:54:05.718Z,16.09
2018-05-04T13:54:45.926Z,16.19
2018-05-04T13:55:26.532Z,15.89
2018-05-04T13:56:07.171Z,16.08
2018-05-04T13:56:47.782Z,16.08
2018-05-04T13:57:28.615Z,16.17
2018-05-04T13:58:09.068Z,16.46
2018-05-04T13:58:49.497Z,16.74
2018-05-04T13:59:29.987Z,17.03
2018-05-04T14:00:10.619Z,17.23
2018-05-04T14:00:51.665Z,17.23
2018-05-04T14:01:32.058Z,17.13
2018-05-04T14:02:12.572Z,17.43
2018-05-04T14:02:52.968Z,16.84
2018-05-04T14:03:33.764Z,17.13
2018-05-04T14:04:16.473Z,17.52
2018-05-04T14:04:56.384Z,16.84
2018-05-04T14:05:37.028Z,16.84
2018-05-04T14:06:17.720Z,16.94
2018-05-04T14:06:58.250Z,16.85
2018-05-04T14:07:38.819Z,16.75
2018-05-04T14:08:19.896Z,16.75
2018-05-04T14:09:00.908Z,17.05
2018-05-04T14:09:42.549Z,16.95
2018-05-04T14:10:23.075Z,16.75
2018-05-04T14:11:03.695Z,16.86
2018-05-04T14:11:44.766Z,16.56
2018-05-04T14:12:25.149Z,16.76
2018-05-04T14:13:05.533Z,16.66
2018-05-04T14:13:46.327Z,16.96
2018-05-04T14:14:26.736Z,17.15
2018-05-04T14:15:07.306Z,16.85
2018-05-04T14:15:47.960Z,16.95
2018-05-04T14:16:29.940Z,17.23
2018-05-04T14:17:09.754Z,17.43
2018-05-04T14:17:50.113Z,17.43
2018-05-04T14:18:30.899Z,17.52
2018-05-04T14:19:11.670Z,17.33
2018-05-04T14:19:52.299Z,17.23
2018-05-04T14:20:33.024Z,17.13
2018-05-04T14:35:54.772Z,18.29
2018-05-04T14:36:35.587Z,18.19
2018-05-04T14:37:16.908Z,18.27
2018-05-04T14:37:57.436Z,18.27
2018-05-04T14:38:37.870Z,18.66
2018-05-04T14:39:18.380Z,18.86
2018-05-04T14:39:58.977Z,18.76
2018-05-04T14:40:39.542Z,18.96
2018-05-04T14:41:20.378Z,19.15
2018-05-04T14:42:01.233Z,19.06
2018-05-04T14:42:41.809Z,19.04
2018-05-04T14:43:22.691Z,19.04
2018-05-04T14:44:03.443Z,19.34
2018-05-04T14:44:44.325Z,19.34
2018-05-04T14:45:24.760Z,19.43
2018-05-04T14:46:05.512Z,19.43
2018-05-04T14:46:46.482Z,19.81
2018-05-04T14:47:27.138Z,20.1
2018-05-04T14:48:07.591Z,19.82
2018-05-04T14:48:50.125Z,19.73
2018-05-04T14:49:30.977Z,20.01
2018-05-04T14:50:11.553Z,19.92
2018-05-04T14:50:52.756Z,19.73
2018-05-04T14:51:33.288Z,19.54
2018-05-04T14:52:13.565Z,19.63
2018-05-04T14:52:54.305Z,19.53
2018-05-04T14:53:34.664Z,19.63
2018-05-04T14:54:15.147Z,19.24
2018-05-04T14:54:55.860Z,19.32
2018-05-04T14:55:36.240Z,19.42
2018-05-04T14:56:16.822Z,19.61
2018-05-04T14:56:57.208Z,20.19
2018-05-04T14:57:37.819Z,20.29
2018-05-04T14:58:18.127Z,20.76
2018-05-04T14:58:58.667Z,20.28
2018-05-04T15:04:23.349Z,20.76
2018-05-04T15:05:10.200Z,20.86
2018-05-04T15:05:50.611Z,21.05
2018-05-04T15:06:31.167Z,21.05
2018-05-04T15:07:11.881Z,20.57
2018-05-04T15:07:52.561Z,21.05
2018-05-04T15:08:33.134Z,20.96
2018-05-04T15:09:17.129Z,21.25
2018-05-04T15:09:57.552Z,20.96
2018-05-04T15:10:38.361Z,20.97
2018-05-04T15:11:19.591Z,20.68
2018-05-04T15:12:00.196Z,20.19
2018-05-04T15:12:41.042Z,20.29
2018-05-04T15:13:21.225Z,20.19
2018-05-04T15:14:01.935Z,20.29
2018-05-04T15:14:42.342Z,20.77
2018-05-04T15:15:22.946Z,20.39
2018-05-04T15:16:03.544Z,20.39
2018-05-04T15:28:10.810Z,21.25
2018-05-04T15:28:51.780Z,21.15
2018-05-04T15:29:32.227Z,21.64
2018-05-04T15:30:12.722Z,21.72
2018-05-04T15:30:53.029Z,21.72
2018-05-04T15:31:33.496Z,21.62
2018-05-04T15:32:15.183Z,21.92
2018-05-04T15:32:55.605Z,21.72
2018-05-04T15:33:36.131Z,21.33
2018-05-04T15:34:16.930Z,22.02
2018-05-04T15:34:57.353Z,21.92
2018-05-04T15:35:38.517Z,22.11
2018-05-04T15:36:19.233Z,22.2
2018-05-04T15:36:59.694Z,22.2
2018-05-04T15:37:40.201Z,22.2
2018-05-04T15:38:20.805Z,22.6
2018-05-04T15:39:01.402Z,22.11
2018-05-04T15:39:42.241Z,21.62
2018-05-04T15:40:22.717Z,22.02
2018-05-04T15:41:03.288Z,21.91
2018-05-04T15:41:43.899Z,22.1
2018-05-04T15:42:24.178Z,22
2018-05-04T15:43:05.131Z,21.81
2018-05-04T15:43:45.565Z,22.1
2018-05-04T15:44:26.755Z,22.1
2018-05-04T15:45:10.362Z,22.49
2018-05-04T15:45:51.123Z,22.58
2018-05-04T15:46:31.644Z,22.68
2018-05-04T15:47:11.847Z,22.88
2018-05-04T15:47:52.302Z,22.38
2018-05-04T15:48:32.727Z,23.16
2018-05-04T15:49:13.480Z,23.07
2018-05-04T15:49:54.196Z,22.86
2018-05-04T15:50:34.537Z,23.16
2018-05-04T15:51:14.922Z,23.83
2018-05-04T15:51:55.394Z,23.74
2018-05-04T15:52:35.948Z,23.54
2018-05-04T15:53:16.494Z,23.44
2018-05-04T15:53:56.914Z,23.05
2018-05-04T15:54:37.818Z,23.25
2018-05-04T15:55:18.401Z,23.25
2018-05-04T15:55:58.953Z,23.25
2018-05-04T15:56:39.307Z,23.25
2018-05-04T15:57:19.876Z,23.16